Dodson, Texas
Current Conditions -  °F | °C
As of 6:53 AM on Tuesday 21 Oct 2014 (Local Time) from KCDS Reporting Station
Clear Clear  
Wind Chill: 14°   Ceiling: Unl
Heat Index: 14°   Visibility: 10mi
Dew Point: 12°   Wind: 6mph
Humidity: 84%   Direction: 250°WSW
Pressure: 30.09"   Gusts: NA
Location:  34.77°N, 100.02°W
Report Text: KCDS 211153Z AUTO 25005KT 10SM CLR 14/12 A3009 RMK AO2 SLP169 T01440117 10178 20144 53006
Loading
Personal Weather Stations






























Interactive Weather Map
Tropical Storm Tracking
New forecast layout! Learn more

10-Day Weather Forecast

Advertisements
Track Severe Weather on mobile